Minchumina, Alaska
Current Conditions -  °F | °C
As of 10:52 PM on Saturday 25 Oct 2014 (Local Time) from PATA Reporting Station
Overcast Overcast  
Wind Chill: 12°   Ceiling: 600
Heat Index: 23°   Visibility: 10mi
Dew Point: 22°   Wind: 12mph
Humidity: 96%   Direction: 130°SE
Pressure: 29.87"   Gusts: NA
Location:  63.9°N, 152.27°W
Report Text: PATA 260652Z AUTO 13010KT 10SM OVC006 M05/M06 A2987 RMK AO2 SLP120 T10501056 TSNO $
Loading
Personal Weather Stations






























Interactive Weather Map
Tropical Storm Tracking
New forecast layout! Learn more

10-Day Weather Forecast

Advertisements
Track Severe Weather on mobile